Time;durP1;ratioP1;P1;durP2;ratioP2;P2;SDS_P1;SDS_P2;PMS_P1;PMS_P2;Temp;Humidity;BMP_temperature;BMP_pressure;BME280_temperature;BME280_humidity;BME280_pressure;Samples;Min_cycle;Max_cycle;Signal;HPM_P1;HPM_P2
2023/09/22 00:01:25;;;;;;;10.40;8.80;;;17.60;99.90;;;;;;5013542;28;20064;-67
2023/09/22 00:03:51;;;;;;;12.32;8.88;;;17.70;99.90;;;;;;5013690;28;20068;-67
2023/09/22 00:06:18;;;;;;;9.60;8.30;;;17.70;99.90;;;;;;5012627;28;20037;-71
2023/09/22 00:08:43;;;;;;;11.32;8.85;;;17.60;99.90;;;;;;5013457;28;20065;-65
2023/09/22 00:11:10;;;;;;;10.23;8.82;;;17.50;99.90;;;;;;5013808;28;20018;-66
2023/09/22 00:13:36;;;;;;;11.13;8.25;;;17.50;99.90;;;;;;5013510;28;20026;-66
2023/09/22 00:16:02;;;;;;;10.82;8.18;;;17.40;99.90;;;;;;5012188;28;20097;-66
2023/09/22 00:18:28;;;;;;;11.68;8.55;;;17.40;99.90;;;;;;5013379;28;20025;-66
2023/09/22 00:20:54;;;;;;;9.35;8.30;;;17.40;99.90;;;;;;5013709;28;20025;-68
2023/09/22 00:23:20;;;;;;;9.77;7.32;;;17.40;99.90;;;;;;5013464;28;20030;-65
2023/09/22 00:25:46;;;;;;;12.55;6.90;;;17.30;99.90;;;;;;5013493;28;20101;-66
2023/09/22 00:28:11;;;;;;;9.55;6.72;;;17.40;99.90;;;;;;5013112;28;20121;-65
2023/09/22 00:30:37;;;;;;;10.10;7.22;;;17.30;99.90;;;;;;5013034;28;20471;-71
2023/09/22 00:33:03;;;;;;;9.63;6.90;;;17.30;99.90;;;;;;5013439;28;20087;-66
2023/09/22 00:35:29;;;;;;;9.52;6.47;;;17.30;99.90;;;;;;5013203;28;20101;-66
2023/09/22 00:37:54;;;;;;;9.15;6.00;;;17.30;99.90;;;;;;5013320;28;20472;-65
2023/09/22 00:40:20;;;;;;;10.65;6.05;;;17.30;99.90;;;;;;5012130;28;20121;-66
2023/09/22 00:42:45;;;;;;;9.70;5.93;;;17.30;99.90;;;;;;5013315;28;20105;-70
2023/09/22 00:45:13;;;;;;;9.38;5.72;;;17.30;99.90;;;;;;5013058;28;20034;-65
2023/09/22 00:47:38;;;;;;;11.60;6.70;;;17.30;99.90;;;;;;5014996;28;20495;-65
2023/09/22 00:50:07;;;;;;;12.00;6.20;;;17.30;99.90;;;;;;5017366;28;20037;-66
2023/09/22 00:52:33;;;;;;;8.65;5.00;;;17.30;99.90;;;;;;5017301;28;20080;-65
2023/09/22 00:54:59;;;;;;;9.98;5.38;;;17.30;99.90;;;;;;5017247;28;20104;-66
2023/09/22 00:57:25;;;;;;;10.50;5.00;;;17.30;99.90;;;;;;5017298;28;20019;-66
2023/09/22 00:59:51;;;;;;;10.40;5.10;;;17.30;99.90;;;;;;5016734;28;20752;-66
2023/09/22 01:02:16;;;;;;;8.82;4.70;;;17.30;99.90;;;;;;5017272;28;20021;-66
2023/09/22 01:04:42;;;;;;;10.30;5.28;;;17.30;99.90;;;;;;5016818;28;20033;-65
2023/09/22 01:07:09;;;;;;;8.68;4.85;;;17.30;99.90;;;;;;5016891;28;20080;-66
2023/09/22 01:09:37;;;;;;;6.95;4.60;;;17.30;99.90;;;;;;5016862;28;20164;-65
2023/09/22 01:12:03;;;;;;;10.10;5.30;;;17.30;99.90;;;;;;5017082;28;20018;-65
2023/09/22 01:14:29;;;;;;;8.30;5.28;;;17.30;99.90;;;;;;5016521;28;20412;-65
2023/09/22 01:16:54;;;;;;;9.27;4.75;;;17.30;99.90;;;;;;5016903;28;20525;-66
2023/09/22 01:19:20;;;;;;;10.27;4.95;;;17.30;99.90;;;;;;5016726;28;20030;-65
2023/09/22 01:21:48;;;;;;;9.20;3.70;;;17.30;99.90;;;;;;5016791;28;20022;-65
2023/09/22 01:24:13;;;;;;;8.00;4.28;;;17.30;99.90;;;;;;5016588;28;20108;-66
2023/09/22 01:26:40;;;;;;;10.20;4.45;;;17.50;99.90;;;;;;5015563;28;20100;-65
2023/09/22 01:29:08;;;;;;;7.80;3.60;;;17.40;99.90;;;;;;5016678;28;20029;-65
2023/09/22 01:31:35;;;;;;;6.50;4.25;;;17.50;99.90;;;;;;5016764;28;20426;-66
2023/09/22 01:34:02;;;;;;;9.38;4.50;;;17.40;99.90;;;;;;5016071;28;20056;-66
2023/09/22 01:36:28;;;;;;;8.23;4.25;;;17.40;99.90;;;;;;5016473;28;20027;-65
2023/09/22 01:39:01;;;;;;;5.88;3.97;;;17.50;99.90;;;;;;5016472;28;20045;-65
2023/09/22 01:41:27;;;;;;;5.95;3.60;;;17.40;99.90;;;;;;5016113;28;20105;-66
2023/09/22 01:43:53;;;;;;;5.35;4.05;;;17.50;99.90;;;;;;5016234;28;20053;-67
2023/09/22 01:46:18;;;;;;;8.88;3.97;;;17.50;99.90;;;;;;5016341;28;20084;-65
2023/09/22 01:48:44;;;;;;;7.18;3.75;;;17.50;99.90;;;;;;5016099;28;20030;-65
2023/09/22 01:51:09;;;;;;;7.30;4.10;;;17.50;99.90;;;;;;5016151;28;20527;-66
2023/09/22 01:53:35;;;;;;;9.45;4.38;;;17.50;99.90;;;;;;5016372;28;20037;-65
2023/09/22 01:56:01;;;;;;;5.78;4.32;;;17.50;99.90;;;;;;5016195;28;20029;-73
2023/09/22 01:58:26;;;;;;;7.35;3.85;;;17.50;99.90;;;;;;5015881;28;20113;-66
2023/09/22 02:00:52;;;;;;;7.00;4.22;;;17.50;99.90;;;;;;5015942;28;20026;-66
2023/09/22 02:03:18;;;;;;;7.50;3.58;;;17.50;99.90;;;;;;5016130;28;20022;-66
2023/09/22 02:05:44;;;;;;;8.20;4.50;;;17.50;99.90;;;;;;5014445;28;20030;-66
2023/09/22 02:08:10;;;;;;;9.23;4.43;;;17.50;99.90;;;;;;5015974;28;20042;-66
2023/09/22 02:10:35;;;;;;;6.95;4.88;;;17.50;99.90;;;;;;5015540;28;20502;-65
2023/09/22 02:13:01;;;;;;;7.35;4.50;;;17.50;99.90;;;;;;5015902;28;20498;-66
2023/09/22 02:15:27;;;;;;;8.30;4.30;;;17.50;99.90;;;;;;5015745;28;20041;-65
2023/09/22 02:17:53;;;;;;;10.13;4.75;;;17.50;99.90;;;;;;5015847;28;20029;-66
2023/09/22 02:20:22;;;;;;;6.22;4.20;;;17.40;99.90;;;;;;5015620;28;20026;-67
2023/09/22 02:22:58;;;;;;;8.45;4.65;;;17.40;99.90;;;;;;5015574;28;20026;-66
2023/09/22 02:25:24;;;;;;;7.28;4.07;;;17.50;99.90;;;;;;5015407;28;20064;-66
2023/09/22 02:27:53;;;;;;;7.15;4.28;;;17.50;99.90;;;;;;5015413;28;20125;-66
2023/09/22 02:30:19;;;;;;;7.95;4.88;;;17.40;99.90;;;;;;5015523;28;20076;-70
2023/09/22 02:32:48;;;;;;;9.85;4.13;;;17.50;99.90;;;;;;5015405;28;20026;-66
2023/09/22 02:35:14;;;;;;;9.05;4.20;;;17.50;99.90;;;;;;5015384;28;20076;-66
2023/09/22 02:37:40;;;;;;;7.15;3.38;;;17.40;99.90;;;;;;5015343;28;20109;-66
2023/09/22 02:40:07;;;;;;;5.45;3.50;;;17.50;99.90;;;;;;5014971;28;20056;-65
2023/09/22 02:42:33;;;;;;;9.57;4.75;;;17.50;99.90;;;;;;5015272;28;20109;-66
2023/09/22 02:44:59;;;;;;;8.30;3.67;;;17.50;99.90;;;;;;5015412;28;20093;-66
2023/09/22 02:47:27;;;;;;;11.75;4.28;;;17.50;99.90;;;;;;5014978;28;20096;-65
2023/09/22 02:49:54;;;;;;;5.70;3.42;;;17.50;99.90;;;;;;5015419;28;20033;-67
2023/09/22 02:52:20;;;;;;;8.10;3.78;;;17.50;99.90;;;;;;5015211;28;20025;-65
2023/09/22 02:54:45;;;;;;;9.52;3.85;;;17.40;99.90;;;;;;5014967;28;20030;-65
2023/09/22 02:57:11;;;;;;;7.07;2.92;;;17.40;99.90;;;;;;5014898;28;20022;-66
2023/09/22 02:59:36;;;;;;;5.72;3.08;;;17.40;99.90;;;;;;5015077;28;20041;-66
2023/09/22 03:02:02;;;;;;;5.45;3.08;;;17.40;99.90;;;;;;5014754;28;20476;-66
2023/09/22 03:04:31;;;;;;;3.80;2.50;;;17.40;99.90;;;;;;5014852;28;20030;-66
2023/09/22 03:06:56;;;;;;;6.40;2.53;;;17.40;99.90;;;;;;5014569;28;20422;-66
2023/09/22 03:09:22;;;;;;;6.45;2.72;;;17.50;99.90;;;;;;5014180;28;20041;-66
2023/09/22 03:11:48;;;;;;;8.35;2.42;;;17.40;99.90;;;;;;5014418;28;20052;-65
2023/09/22 03:14:13;;;;;;;6.30;2.65;;;17.40;99.90;;;;;;5014762;28;20041;-73
2023/09/22 03:16:41;;;;;;;6.88;2.50;;;17.40;99.90;;;;;;5014603;28;20020;-65
2023/09/22 03:19:07;;;;;;;5.35;2.40;;;17.30;99.90;;;;;;5014513;28;20459;-65
2023/09/22 03:21:33;;;;;;;7.35;2.45;;;17.30;99.90;;;;;;5014676;28;20030;-65
2023/09/22 03:23:59;;;;;;;7.25;2.30;;;17.30;99.90;;;;;;5014128;28;20096;-65
2023/09/22 03:26:24;;;;;;;5.82;2.22;;;17.30;99.90;;;;;;5014414;28;20112;-65
2023/09/22 03:28:50;;;;;;;4.40;2.47;;;17.30;99.90;;;;;;5014236;28;20034;-65
2023/09/22 03:31:23;;;;;;;4.70;1.55;;;17.30;99.90;;;;;;5014397;28;20014;-65
2023/09/22 03:33:48;;;;;;;6.45;2.25;;;17.30;99.90;;;;;;5014228;28;20097;-65
2023/09/22 03:36:15;;;;;;;7.75;2.08;;;17.20;99.90;;;;;;5014361;28;20057;-66
2023/09/22 03:38:41;;;;;;;5.13;1.50;;;17.20;99.90;;;;;;5013797;28;20026;-65
2023/09/22 03:41:07;;;;;;;6.03;2.00;;;17.20;99.90;;;;;;5014359;28;20045;-65
2023/09/22 03:43:33;;;;;;;6.65;1.45;;;17.20;99.90;;;;;;5014185;28;20036;-65
2023/09/22 03:45:59;;;;;;;5.88;2.42;;;17.20;99.90;;;;;;5014136;28;20022;-66
2023/09/22 03:48:25;;;;;;;3.40;1.50;;;17.20;99.90;;;;;;5013924;28;20034;-65
2023/09/22 03:50:50;;;;;;;8.63;1.40;;;17.20;99.90;;;;;;5014216;28;20100;-66
2023/09/22 03:53:16;;;;;;;7.80;1.70;;;17.20;99.90;;;;;;5013611;28;20153;-65
2023/09/22 03:55:44;;;;;;;5.40;1.70;;;17.10;99.90;;;;;;5014130;28;20464;-65
2023/09/22 03:58:10;;;;;;;4.07;2.03;;;17.20;99.90;;;;;;5011204;28;20026;-73
2023/09/22 04:00:37;;;;;;;4.40;1.40;;;17.10;99.90;;;;;;5013800;28;20038;-74
2023/09/22 04:03:04;;;;;;;3.83;1.15;;;17.10;99.90;;;;;;5012567;28;20459;-71
2023/09/22 04:05:30;;;;;;;2.63;1.20;;;17.00;99.90;;;;;;5013891;28;20396;-72
2023/09/22 04:07:57;;;;;;;4.28;1.27;;;17.10;99.90;;;;;;5013632;28;20503;-72
2023/09/22 04:10:23;;;;;;;3.80;1.50;;;17.00;99.90;;;;;;5012725;28;20554;-66
2023/09/22 04:12:50;;;;;;;5.03;1.20;;;17.10;99.90;;;;;;5013603;28;20118;-73
2023/09/22 04:15:15;;;;;;;4.18;1.48;;;17.10;99.90;;;;;;5013720;28;20093;-73
2023/09/22 04:17:42;;;;;;;7.60;1.45;;;17.10;99.90;;;;;;5013375;28;20129;-72
2023/09/22 04:20:11;;;;;;;2.78;1.55;;;17.00;99.90;;;;;;5013158;28;20021;-65
2023/09/22 04:22:41;;;;;;;3.50;1.30;;;17.10;99.90;;;;;;5012503;28;20116;-63
2023/09/22 04:25:11;;;;;;;5.95;1.40;;;17.00;99.90;;;;;;5013126;28;20117;-64
2023/09/22 04:27:46;;;;;;;3.75;1.25;;;17.00;99.90;;;;;;5000781;28;20487;-65
2023/09/22 04:30:16;;;;;;;8.13;1.25;;;16.90;99.90;;;;;;5013404;28;20053;-64
2023/09/22 04:32:44;;;;;;;4.70;1.73;;;17.10;99.90;;;;;;5013681;28;20030;-66
2023/09/22 04:35:10;;;;;;;5.18;1.00;;;17.30;99.90;;;;;;5009877;28;20419;-65
2023/09/22 04:37:36;;;;;;;2.42;0.98;;;17.40;99.90;;;;;;5004795;28;20042;-66
2023/09/22 04:40:23;;;;;;;2.30;0.80;;;17.40;99.90;;;;;;5003270;28;20404;-66
2023/09/22 04:42:49;;;;;;;6.18;1.63;;;17.50;99.90;;;;;;5010829;28;20022;-66
2023/09/22 04:45:18;;;;;;;5.53;1.67;;;17.50;99.90;;;;;;5005614;28;20030;-74
2023/09/22 04:47:46;;;;;;;3.55;1.05;;;17.50;99.90;;;;;;5013175;28;20117;-64
2023/09/22 04:50:15;;;;;;;3.50;1.15;;;17.40;99.90;;;;;;5010127;28;20034;-66
2023/09/22 04:52:41;;;;;;;4.85;1.40;;;17.50;99.90;;;;;;4997564;28;20022;-65
2023/09/22 04:55:07;;;;;;;3.95;1.40;;;17.50;99.90;;;;;;5005317;28;20085;-68
2023/09/22 04:57:33;;;;;;;3.75;1.00;;;17.50;99.90;;;;;;5013314;28;20109;-65
2023/09/22 04:59:58;;;;;;;5.53;1.33;;;17.40;99.90;;;;;;5012225;28;20068;-67
2023/09/22 05:02:24;;;;;;;4.43;1.15;;;17.50;99.90;;;;;;5013245;28;20022;-65
2023/09/22 05:04:51;;;;;;;3.35;1.10;;;17.50;99.90;;;;;;5012466;28;20034;-65
2023/09/22 05:07:17;;;;;;;5.90;1.23;;;17.40;99.90;;;;;;5011319;28;20060;-65
2023/09/22 05:09:44;;;;;;;1.92;0.80;;;17.40;99.90;;;;;;5013100;28;20111;-66
2023/09/22 05:12:10;;;;;;;2.15;0.75;;;17.40;99.90;;;;;;5009054;28;20018;-65
2023/09/22 05:14:35;;;;;;;5.32;1.17;;;17.40;99.90;;;;;;5012418;28;20037;-65
2023/09/22 05:17:02;;;;;;;3.42;0.75;;;17.40;99.90;;;;;;5011120;28;20057;-66
2023/09/22 05:19:29;;;;;;;2.72;1.17;;;17.40;99.90;;;;;;5012393;28;20026;-65
2023/09/22 05:21:55;;;;;;;4.25;1.30;;;17.40;99.90;;;;;;5013226;28;20026;-67
2023/09/22 05:24:20;;;;;;;3.42;0.93;;;17.40;99.90;;;;;;5010940;28;20022;-65
2023/09/22 05:26:46;;;;;;;3.42;1.20;;;17.30;99.90;;;;;;5008046;28;20018;-65
2023/09/22 05:29:12;;;;;;;1.45;0.65;;;17.30;99.90;;;;;;5001335;28;20046;-68
2023/09/22 05:31:37;;;;;;;2.80;1.00;;;17.30;99.90;;;;;;4996929;28;20022;-71
2023/09/22 05:34:03;;;;;;;2.47;0.93;;;17.30;99.90;;;;;;5001108;28;20034;-67
2023/09/22 05:36:29;;;;;;;3.95;0.90;;;17.40;99.90;;;;;;5015498;28;20105;-66
2023/09/22 05:38:56;;;;;;;1.88;0.68;;;17.30;99.90;;;;;;5016506;28;20061;-66
2023/09/22 05:41:22;;;;;;;2.47;0.82;;;17.30;99.90;;;;;;5007454;28;20021;-66
2023/09/22 05:43:48;;;;;;;2.20;0.82;;;17.30;99.90;;;;;;4996637;28;20035;-66
2023/09/22 05:46:13;;;;;;;6.50;1.02;;;17.30;99.90;;;;;;4998696;28;20057;-65
2023/09/22 05:48:39;;;;;;;10.55;1.38;;;17.30;99.90;;;;;;5006394;28;20479;-68
2023/09/22 05:51:05;;;;;;;3.95;1.05;;;17.40;99.90;;;;;;5019145;28;20056;-72
2023/09/22 05:53:30;;;;;;;2.35;0.50;;;17.20;99.90;;;;;;5016015;28;20109;-69
2023/09/22 05:56:06;;;;;;;11.25;0.70;;;17.20;99.90;;;;;;5003445;28;20053;-68
2023/09/22 05:58:34;;;;;;;6.75;0.73;;;17.20;99.90;;;;;;5006611;28;20034;-69
2023/09/22 06:01:07;;;;;;;6.55;1.30;;;17.30;99.90;;;;;;5005248;28;20048;-68
2023/09/22 06:03:38;;;;;;;3.63;1.10;;;17.20;99.90;;;;;;5001384;28;20029;-69
2023/09/22 06:06:10;;;;;;;5.50;0.80;;;17.20;99.90;;;;;;5002337;28;20034;-69
2023/09/22 06:08:37;;;;;;;4.13;0.73;;;17.20;99.90;;;;;;5011672;28;20415;-69
2023/09/22 06:11:06;;;;;;;3.35;0.98;;;17.10;99.90;;;;;;5009886;28;20026;-70
2023/09/22 06:13:32;;;;;;;1.65;0.47;;;17.00;99.90;;;;;;5014010;28;20037;-69
2023/09/22 06:15:58;;;;;;;2.90;1.23;;;17.00;99.90;;;;;;5010982;28;20035;-68
2023/09/22 06:18:24;;;;;;;3.78;1.13;;;16.90;99.90;;;;;;5019160;28;20457;-69
2023/09/22 06:20:56;;;;;;;2.72;0.68;;;16.80;99.90;;;;;;5007089;28;20029;-68
2023/09/22 06:23:23;;;;;;;3.28;0.93;;;16.70;99.90;;;;;;4994783;28;20472;-69
2023/09/22 06:25:54;;;;;;;3.80;0.75;;;16.70;99.90;;;;;;5007862;28;20475;-68
2023/09/22 06:28:20;;;;;;;5.20;0.88;;;16.60;99.90;;;;;;5015499;28;20053;-68
2023/09/22 06:30:47;;;;;;;4.53;1.02;;;16.60;99.90;;;;;;5015318;28;20045;-69
2023/09/22 06:33:16;;;;;;;2.90;0.82;;;16.50;99.90;;;;;;5013584;28;20065;-68
2023/09/22 06:35:46;;;;;;;6.05;1.50;;;16.50;99.90;;;;;;5015307;28;20423;-69
2023/09/22 06:38:12;;;;;;;2.63;0.80;;;16.50;99.90;;;;;;5015139;28;20105;-69
2023/09/22 06:40:38;;;;;;;2.13;1.02;;;16.50;99.90;;;;;;5015287;28;20018;-69
2023/09/22 06:43:04;;;;;;;3.60;0.93;;;16.50;99.90;;;;;;5014462;28;20026;-68
2023/09/22 06:45:33;;;;;;;3.85;1.05;;;16.50;99.90;;;;;;5014196;28;20353;-69
2023/09/22 06:47:59;;;;;;;4.60;1.00;;;16.50;99.90;;;;;;5012079;28;20114;-69
2023/09/22 06:50:29;;;;;;;3.35;1.10;;;16.50;99.90;;;;;;4995811;28;20026;-69
2023/09/22 06:52:54;;;;;;;1.92;0.60;;;16.50;99.90;;;;;;5003801;28;20073;-69
2023/09/22 06:55:20;;;;;;;2.65;0.52;;;16.50;99.90;;;;;;4997576;28;20045;-69
2023/09/22 06:57:46;;;;;;;2.38;0.77;;;16.50;99.90;;;;;;4995154;28;20522;-69
2023/09/22 07:00:23;;;;;;;2.40;0.57;;;16.60;99.90;;;;;;5007858;28;20022;-69
2023/09/22 07:02:49;;;;;;;3.30;0.80;;;16.60;99.90;;;;;;5005943;28;20029;-70
2023/09/22 07:05:16;;;;;;;4.95;0.90;;;16.60;99.90;;;;;;5002296;28;20042;-69
2023/09/22 07:07:41;;;;;;;2.35;0.55;;;16.70;99.90;;;;;;5014592;28;20117;-69
2023/09/22 07:10:11;;;;;;;2.90;1.05;;;16.70;99.90;;;;;;4998371;28;20117;-69
2023/09/22 07:12:41;;;;;;;2.20;0.70;;;16.70;99.90;;;;;;4995263;28;20032;-70
2023/09/22 07:15:07;;;;;;;3.50;0.98;;;16.80;99.90;;;;;;4994815;28;20022;-70
2023/09/22 07:17:34;;;;;;;2.25;0.65;;;16.90;99.90;;;;;;4995518;28;20034;-69
2023/09/22 07:20:01;;;;;;;1.35;0.60;;;17.00;99.90;;;;;;5013224;28;20133;-70
2023/09/22 07:22:29;;;;;;;2.22;0.50;;;17.10;99.90;;;;;;5005262;28;20033;-70
2023/09/22 07:24:55;;;;;;;1.88;0.63;;;17.10;99.90;;;;;;4995209;28;20117;-70
2023/09/22 07:27:23;;;;;;;5.82;1.02;;;17.20;99.90;;;;;;5010879;28;20105;-69
2023/09/22 07:29:50;;;;;;;4.78;0.60;;;17.20;99.90;;;;;;5012337;28;20022;-69
2023/09/22 07:32:16;;;;;;;2.35;0.80;;;17.30;99.90;;;;;;5000533;28;20033;-73
2023/09/22 07:34:42;;;;;;;2.80;0.98;;;17.40;99.90;;;;;;5014425;28;20064;-70
2023/09/22 07:37:11;;;;;;;2.85;0.60;;;17.50;99.90;;;;;;5014247;28;20471;-69
2023/09/22 07:39:39;;;;;;;3.97;0.63;;;17.50;99.90;;;;;;5003992;28;20330;-68
2023/09/22 07:42:09;;;;;;;3.45;0.73;;;17.50;99.90;;;;;;5005965;28;20427;-70
2023/09/22 07:44:37;;;;;;;3.67;0.50;;;17.50;99.90;;;;;;5002068;28;20093;-69
2023/09/22 07:47:10;;;;;;;2.80;0.80;;;17.60;99.90;;;;;;5001150;28;20076;-73
2023/09/22 07:49:40;;;;;;;2.47;0.60;;;17.60;99.90;;;;;;4994137;28;20030;-69
2023/09/22 07:52:10;;;;;;;3.95;0.80;;;17.70;99.90;;;;;;4999354;28;20018;-69
2023/09/22 07:54:36;;;;;;;2.47;0.75;;;17.70;99.90;;;;;;4999151;28;20026;-68
2023/09/22 07:57:03;;;;;;;4.28;0.68;;;17.70;99.90;;;;;;5001722;28;20030;-69
2023/09/22 07:59:31;;;;;;;3.08;0.55;;;17.70;99.90;;;;;;5011230;28;20519;-68
2023/09/22 08:01:59;;;;;;;2.42;0.63;;;17.80;99.90;;;;;;5004728;28;20049;-68
2023/09/22 08:04:25;;;;;;;4.22;1.00;;;17.80;99.90;;;;;;5006181;28;20451;-68
2023/09/22 08:06:50;;;;;;;3.08;0.70;;;17.90;99.90;;;;;;5006951;28;20434;-68
2023/09/22 08:09:16;;;;;;;4.15;0.70;;;17.90;99.90;;;;;;5013014;28;20480;-67
2023/09/22 08:11:42;;;;;;;2.88;0.70;;;17.90;99.90;;;;;;5013101;28;20018;-71
2023/09/22 08:14:07;;;;;;;4.78;0.77;;;18.00;99.90;;;;;;5013234;28;20046;-68
2023/09/22 08:16:34;;;;;;;2.60;0.52;;;18.00;99.90;;;;;;5013335;28;20018;-74
2023/09/22 08:19:00;;;;;;;1.88;0.40;;;18.00;99.90;;;;;;5013488;28;20034;-69
2023/09/22 08:21:26;;;;;;;2.55;0.47;;;18.00;99.90;;;;;;5011558;28;20027;-68
2023/09/22 08:23:51;;;;;;;3.25;0.80;;;18.10;99.90;;;;;;5013175;28;20024;-67
2023/09/22 08:26:18;;;;;;;3.95;0.70;;;18.10;99.90;;;;;;5013468;28;20076;-72
2023/09/22 08:28:47;;;;;;;1.83;0.50;;;18.10;99.90;;;;;;5013119;28;20391;-68
2023/09/22 08:31:13;;;;;;;5.05;0.73;;;18.20;99.90;;;;;;5008694;28;20041;-69
2023/09/22 08:33:40;;;;;;;3.30;0.75;;;18.20;99.90;;;;;;4996664;28;20076;-67
2023/09/22 08:36:06;;;;;;;2.47;0.80;;;18.20;99.90;;;;;;4997186;28;20107;-68
2023/09/22 08:38:32;;;;;;;4.28;0.85;;;18.10;99.90;;;;;;5013163;28;20560;-67
2023/09/22 08:40:59;;;;;;;2.17;0.50;;;18.20;99.90;;;;;;5013050;28;20016;-67
2023/09/22 08:43:26;;;;;;;1.13;0.55;;;18.20;99.90;;;;;;5000161;28;20575;-65
2023/09/22 08:45:52;;;;;;;3.80;0.95;;;18.20;99.90;;;;;;5007687;28;20380;-66
2023/09/22 08:48:18;;;;;;;1.63;0.43;;;18.20;99.90;;;;;;4992171;28;20089;-67
2023/09/22 08:50:45;;;;;;;3.00;0.50;;;18.20;99.90;;;;;;4997031;28;20022;-68
2023/09/22 08:53:11;;;;;;;2.53;0.50;;;18.20;99.90;;;;;;4999353;28;20117;-67
2023/09/22 08:55:38;;;;;;;3.33;0.50;;;18.20;99.90;;;;;;5010801;28;20064;-66
2023/09/22 08:58:03;;;;;;;2.47;0.50;;;18.20;99.90;;;;;;5012740;28;20031;-66
2023/09/22 09:00:30;;;;;;;1.92;0.63;;;18.20;99.90;;;;;;5011918;28;20026;-66
2023/09/22 09:02:58;;;;;;;2.75;0.73;;;18.20;99.90;;;;;;5008047;28;20046;-67
2023/09/22 09:05:28;;;;;;;4.45;0.60;;;18.20;99.90;;;;;;5003212;28;20117;-67
2023/09/22 09:07:56;;;;;;;2.58;0.60;;;18.20;99.90;;;;;;4992998;28;20049;-67
2023/09/22 09:10:27;;;;;;;3.33;0.47;;;18.30;99.90;;;;;;4998964;28;20057;-68
2023/09/22 09:12:54;;;;;;;2.22;0.93;;;18.30;99.90;;;;;;5015454;28;20480;-68
2023/09/22 09:15:27;;;;;;;3.72;0.82;;;18.30;99.90;;;;;;5016130;28;20383;-67
2023/09/22 09:18:07;;;;;;;3.28;0.70;;;18.30;99.90;;;;;;5012101;28;20022;-67
2023/09/22 09:20:35;;;;;;;3.80;0.75;;;18.30;99.90;;;;;;5008108;28;20030;-67
2023/09/22 09:23:22;;;;;;;2.83;0.63;;;18.30;99.90;;;;;;5016392;28;20488;-68
2023/09/22 09:25:55;;;;;;;1.55;0.60;;;18.40;99.90;;;;;;4996823;28;20476;-67
2023/09/22 09:28:22;;;;;;;2.47;0.55;;;18.30;99.90;;;;;;4998237;28;20039;-67
2023/09/22 09:30:55;;;;;;;1.42;0.40;;;18.30;99.90;;;;;;4997909;28;20030;-68
2023/09/22 09:33:26;;;;;;;1.00;0.50;;;18.30;99.90;;;;;;5006539;28;20132;-68
2023/09/22 09:35:54;;;;;;;0.98;0.40;;;18.30;99.90;;;;;;5016407;28;20030;-71
2023/09/22 09:38:22;;;;;;;1.90;0.45;;;18.40;99.90;;;;;;5016417;28;20041;-70
2023/09/22 09:40:50;;;;;;;2.35;0.57;;;18.40;99.90;;;;;;5016074;28;20479;-67
2023/09/22 09:43:16;;;;;;;3.10;0.80;;;18.40;99.90;;;;;;5016538;28;20061;-69
2023/09/22 09:45:51;;;;;;;2.33;0.70;;;18.40;99.90;;;;;;5016324;28;20054;-67
2023/09/22 09:48:19;;;;;;;3.50;0.82;;;18.50;99.90;;;;;;5016182;28;20378;-67
2023/09/22 09:50:51;;;;;;;4.60;0.60;;;18.50;99.90;;;;;;5012156;28;20026;-68
2023/09/22 09:53:27;;;;;;;1.45;0.57;;;18.50;99.90;;;;;;5011559;28;20026;-68
2023/09/22 09:55:58;;;;;;;4.65;0.63;;;18.50;99.90;;;;;;4998506;28;20029;-67
2023/09/22 09:58:35;;;;;;;1.65;0.60;;;18.50;99.90;;;;;;5011663;28;20026;-68
2023/09/22 10:01:05;;;;;;;3.00;0.63;;;18.60;99.90;;;;;;4997384;28;20038;-67
2023/09/22 10:03:30;;;;;;;1.45;0.70;;;18.60;99.90;;;;;;4995635;28;20440;-68
2023/09/22 10:05:57;;;;;;;3.25;0.80;;;18.60;99.90;;;;;;5000195;28;20069;-68
2023/09/22 10:08:26;;;;;;;3.47;0.40;;;18.60;99.90;;;;;;5006446;28;20495;-67
2023/09/22 10:11:03;;;;;;;2.40;0.73;;;18.60;99.90;;;;;;5026990;28;20018;-67
2023/09/22 10:13:29;;;;;;;3.15;0.50;;;18.70;99.90;;;;;;5012277;28;20387;-67
2023/09/22 10:15:58;;;;;;;3.72;0.50;;;18.60;99.90;;;;;;5011425;28;20030;-67
2023/09/22 10:18:45;;;;;;;3.03;0.50;;;18.60;99.90;;;;;;5008211;28;20368;-72
2023/09/22 10:21:30;;;;;;;1.77;0.50;;;18.70;99.90;;;;;;5012595;28;20022;-68
2023/09/22 10:24:14;;;;;;;6.75;0.90;;;18.70;99.90;;;;;;5013326;28;20030;-67
2023/09/22 10:27:06;;;;;;;2.58;0.60;;;18.70;99.90;;;;;;5014352;28;20054;-68
2023/09/22 10:29:34;;;;;;;2.25;0.73;;;18.70;99.90;;;;;;5013421;28;20026;-68
2023/09/22 10:32:18;;;;;;;2.10;0.77;;;18.70;99.90;;;;;;5010461;28;20022;-68
2023/09/22 10:34:53;;;;;;;2.08;0.60;;;18.80;99.90;;;;;;5011849;28;20030;-67
2023/09/22 10:37:30;;;;;;;1.55;0.40;;;18.80;99.90;;;;;;5000284;28;20029;-68
2023/09/22 10:40:19;;;;;;;2.00;0.70;;;18.80;99.90;;;;;;5006796;28;20029;-67
2023/09/22 10:42:51;;;;;;;1.85;0.60;;;18.80;99.90;;;;;;5011380;28;20391;-67
2023/09/22 10:45:18;;;;;;;;;;;18.80;99.90;;;;;;4999519;28;20025;-68
2023/09/22 10:47:46;;;;;;;2.78;0.60;;;18.90;99.90;;;;;;5014525;28;20104;-69
2023/09/22 10:50:31;;;;;;;2.85;0.65;;;18.80;99.90;;;;;;5013879;28;20101;-67
2023/09/22 10:53:04;;;;;;;2.50;0.65;;;18.80;99.90;;;;;;4994842;28;20039;-67
2023/09/22 10:55:43;;;;;;;2.30;0.47;;;18.80;99.90;;;;;;5013400;28;20541;-67
2023/09/22 10:58:09;;;;;;;2.50;0.80;;;18.80;99.60;;;;;;5014370;28;20026;-69
2023/09/22 11:00:40;;;;;;;2.55;0.57;;;18.80;99.60;;;;;;5014756;28;20029;-67
2023/09/22 11:03:06;;;;;;;2.30;0.73;;;18.90;99.70;;;;;;5009851;28;20026;-70
2023/09/22 11:05:34;;;;;;;1.92;0.73;;;18.90;99.90;;;;;;5000039;28;20034;-67
2023/09/22 11:08:01;;;;;;;2.97;1.02;;;18.90;99.90;;;;;;4994938;28;20084;-67
2023/09/22 11:10:27;;;;;;;3.00;0.98;;;18.90;99.90;;;;;;4995265;28;20026;-68
2023/09/22 11:12:54;;;;;;;2.75;0.82;;;18.90;99.90;;;;;;4996187;28;20022;-71
2023/09/22 11:15:20;;;;;;;3.70;0.80;;;19.00;99.90;;;;;;5006326;28;20037;-73
2023/09/22 11:17:46;;;;;;;3.47;0.93;;;19.00;99.90;;;;;;5014959;28;20030;-71
2023/09/22 11:20:22;;;;;;;2.20;0.63;;;19.00;99.90;;;;;;5017197;28;20105;-69
2023/09/22 11:22:48;;;;;;;2.70;0.60;;;19.00;99.90;;;;;;5008605;28;20108;-70
2023/09/22 11:25:14;;;;;;;2.40;0.80;;;19.00;99.90;;;;;;5010318;28;20065;-72
2023/09/22 11:27:47;;;;;;;2.03;0.50;;;19.00;99.60;;;;;;4993967;28;20533;-66
2023/09/22 11:30:19;;;;;;;2.50;0.93;;;19.00;99.80;;;;;;4994200;28;20066;-66
2023/09/22 11:32:46;;;;;;;1.88;0.70;;;19.00;99.70;;;;;;4992855;28;20360;-67
2023/09/22 11:35:51;;;;;;;5.22;1.02;;;19.00;99.30;;;;;;5005106;28;20031;-67
2023/09/22 11:38:27;;;;;;;5.75;1.05;;;19.00;98.90;;;;;;4952537;29;20038;-67
2023/09/22 11:41:17;;;;;;;2.65;1.23;;;19.00;99.30;;;;;;4995909;28;20487;-66
2023/09/22 11:43:48;;;;;;;6.13;0.70;;;19.00;99.70;;;;;;5013367;28;20083;-66
2023/09/22 11:46:27;;;;;;;2.45;0.50;;;19.00;99.90;;;;;;5013546;28;20018;-67
2023/09/22 11:48:57;;;;;;;2.45;0.98;;;19.00;99.90;;;;;;5004539;28;20038;-69
2023/09/22 11:51:37;;;;;;;3.03;0.68;;;19.00;99.90;;;;;;5003221;28;20021;-67
2023/09/22 11:54:03;;;;;;;6.28;0.90;;;19.00;99.90;;;;;;5003768;28;20030;-66
2023/09/22 11:56:29;;;;;;;2.08;0.90;;;19.00;99.90;;;;;;5013182;28;20029;-67
2023/09/22 11:59:04;;;;;;;5.07;0.95;;;19.00;99.90;;;;;;5004219;28;20058;-67
2023/09/22 12:01:30;;;;;;;4.45;0.90;;;19.00;99.90;;;;;;5000151;28;20369;-66
2023/09/22 12:03:55;;;;;;;3.75;0.73;;;19.00;99.90;;;;;;4993312;28;20752;-67
2023/09/22 12:06:21;;;;;;;2.10;0.90;;;19.00;99.90;;;;;;4997567;28;20025;-67
2023/09/22 12:08:47;;;;;;;4.32;1.10;;;19.00;99.90;;;;;;4995689;28;20045;-67
2023/09/22 12:11:13;;;;;;;2.53;0.82;;;19.00;99.90;;;;;;4997424;28;20061;-67
2023/09/22 12:13:40;;;;;;;3.45;0.98;;;19.00;99.90;;;;;;5011911;28;20133;-67
2023/09/22 12:16:06;;;;;;;3.90;1.25;;;19.00;99.90;;;;;;5003478;28;20033;-71
2023/09/22 12:18:32;;;;;;;4.68;1.08;;;19.00;99.90;;;;;;5012060;28;20575;-67
2023/09/22 12:20:57;;;;;;;3.13;1.23;;;19.00;99.90;;;;;;5008729;28;20021;-71
2023/09/22 12:23:23;;;;;;;4.53;1.02;;;19.10;99.90;;;;;;5001317;28;20062;-67
2023/09/22 12:25:52;;;;;;;4.38;1.00;;;19.10;99.90;;;;;;5011615;28;20153;-67
2023/09/22 12:28:20;;;;;;;2.55;0.80;;;19.10;99.90;;;;;;4993175;28;20109;-67
2023/09/22 12:30:46;;;;;;;4.97;1.15;;;19.10;99.90;;;;;;5011489;28;20475;-68
2023/09/22 12:33:12;;;;;;;5.15;0.95;;;19.10;99.90;;;;;;5006938;28;20518;-67
2023/09/22 12:35:38;;;;;;;2.97;1.25;;;19.10;99.90;;;;;;4995230;28;20038;-69
2023/09/22 12:38:06;;;;;;;3.45;1.10;;;19.10;99.90;;;;;;4994054;28;20030;-68
2023/09/22 12:40:32;;;;;;;3.10;1.20;;;19.10;99.90;;;;;;5009529;28;20028;-73
2023/09/22 12:42:58;;;;;;;5.88;1.52;;;19.20;99.90;;;;;;5000890;28;20097;-72
2023/09/22 12:45:25;;;;;;;2.90;1.40;;;19.20;99.90;;;;;;5000151;28;20100;-68
2023/09/22 12:47:51;;;;;;;2.75;1.00;;;19.10;99.90;;;;;;5005183;28;20087;-68
2023/09/22 12:50:16;;;;;;;4.22;1.13;;;19.20;99.90;;;;;;5000871;28;20034;-67